Terminal Aerodrome Forecast
Issued by NWS Springfield, MO

Home | Current Version | Previous Version | Text Only | Print | Product List | Glossary On
Versions: 1 2 3 4 5 6 7 8 9 10 11 12 13 14 15 16 17 18 19 20 21 22 23 24 25 26
000
FTUS43 KSGF 011700
TAFSGF
TAF
KSGF 011730Z 0118/0218 19014G24KT P6SM FEW025 SCT070 BKN120
     FM012200 18013KT P6SM SCT045 BKN150
     FM020100 16010KT P6SM VCTS SCT025 BKN050CB
      TEMPO 0202/0206 2SM +TSRA BR BKN025CB
     FM020600 17009KT 5SM -TSRA BR BKN040CB OVC070
      TEMPO 0206/0210 2SM +TSRA BR SCT004 BKN025CB
     FM021300 20007KT P6SM SCT015 BKN070=

USA.gov is the U.S. government's official web portal to all federal, state and local government web resources and services.